Terminal Aerodrome Forecast
Issued by NWS Quad Cities IA IL

Home | Current Version | Previous Version | Graphics & Text | Print | Product List | Glossary On
Versions: 1 2 3 4 5 6 7 8 9 10 11 12 13 14 15
000
FTUS43 KDVN 240900 AAA
TAFMLI
TAF AMD
KMLI 240901Z 2409/2506 30006KT P6SM SCT008 OVC012
      TEMPO 2409/2413 4SM BR
     FM241400 31011KT P6SM BKN008 OVC020
     FM241800 31014KT P6SM -SN OVC015
     FM242200 31012KT P6SM BKN025=

USA.gov is the U.S. government's official web portal to all federal, state and local government web resources and services.